4XDNS LLHZ-LLHZ

Flight info

Callsign 4XDNS
Flight time 0h 25m
Altitude 800
Route CIRCUITS
Aircraft C172/L-VD/A

Departure

Time 2026-05-07 18:55
Airport Herzliya Airport (LLHZ)

Arrival

Time 2026-05-07 19:20
Airport Herzliya Airport (LLHZ)
Time Latitude Longitude Altitude Speed Heading
2026-05-07 18:47 32.18030 34.83282 103 ft 0 kts 20°
2026-05-07 18:47 32.18029 34.83282 103 ft 0 kts 20°
2026-05-07 18:48 32.18029 34.83281 103 ft 0 kts 20°
2026-05-07 18:51 32.18037 34.83313 103 ft 7 kts 108°
2026-05-07 18:52 32.18017 34.83378 105 ft 10 kts 108°
2026-05-07 18:52 32.17993 34.83461 107 ft 12 kts 108°
2026-05-07 18:52 32.17965 34.83558 109 ft 13 kts 109°
2026-05-07 18:52 32.17933 34.83664 114 ft 13 kts 110°
2026-05-07 18:53 32.17904 34.83764 119 ft 13 kts 110°
2026-05-07 18:53 32.17885 34.83829 120 ft 4 kts 108°
2026-05-07 18:53 32.17882 34.83839 120 ft 0 kts 107°
2026-05-07 18:53 32.17911 34.83854 123 ft 8 kts 304°
2026-05-07 18:54 32.17987 34.83599 110 ft 61 kts 290°
2026-05-07 18:54 32.18167 34.83028 218 ft 78 kts 292°
2026-05-07 18:54 32.18479 34.82668 372 ft 76 kts 27°
2026-05-07 18:54 32.18971 34.82971 494 ft 84 kts 19°
2026-05-07 18:55 32.19464 34.83342 704 ft 86 kts 64°
2026-05-07 18:55 32.19187 34.84075 770 ft 108 kts 118°
2026-05-07 18:55 32.18697 34.84838 801 ft 124 kts 123°
2026-05-07 18:55 32.17931 34.85229 809 ft 139 kts 187°
2026-05-07 18:56 32.17363 34.84562 646 ft 114 kts 292°
2026-05-07 18:56 32.17884 34.84037 290 ft 100 kts 295°
2026-05-07 18:56 32.18077 34.83344 129 ft 78 kts 290°
2026-05-07 18:56 32.18262 34.82760 372 ft 73 kts 305°
2026-05-07 18:57 32.18641 34.82783 449 ft 63 kts 25°
2026-05-07 18:57 32.19066 34.82997 546 ft 75 kts 17°
2026-05-07 18:57 32.19478 34.83413 645 ft 95 kts 83°
2026-05-07 18:57 32.19165 34.84172 737 ft 110 kts 113°
2026-05-07 18:58 32.18725 34.84951 840 ft 121 kts 122°
2026-05-07 18:58 32.17974 34.85318 700 ft 130 kts 199°
2026-05-07 18:58 32.17619 34.84879 597 ft 109 kts 268°
2026-05-07 18:58 32.17869 34.83987 198 ft 74 kts 286°
2026-05-07 18:59 32.18014 34.83506 107 ft 52 kts 290°
2026-05-07 18:59 32.18171 34.83020 195 ft 67 kts 291°
2026-05-07 18:59 32.18444 34.82655 368 ft 65 kts 12°
2026-05-07 18:59 32.18728 34.82783 459 ft 73 kts 26°
2026-05-07 19:00 32.19208 34.83056 651 ft 77 kts 20°
2026-05-07 19:00 32.19443 34.83525 847 ft 90 kts 109°
2026-05-07 19:00 32.19065 34.84336 698 ft 121 kts 115°
2026-05-07 19:00 32.18446 34.85283 828 ft 107 kts 154°
2026-05-07 19:01 32.17704 34.85101 625 ft 116 kts 220°
2026-05-07 19:01 32.17654 34.84672 523 ft 77 kts 297°
2026-05-07 19:01 32.17825 34.84085 229 ft 73 kts 293°
2026-05-07 19:01 32.17996 34.83568 110 ft 62 kts 291°
2026-05-07 19:02 32.18153 34.83083 191 ft 67 kts 291°
2026-05-07 19:02 32.18398 34.82651 363 ft 63 kts
2026-05-07 19:02 32.18848 34.82911 478 ft 75 kts 21°
2026-05-07 19:02 32.19437 34.83374 713 ft 83 kts 77°
2026-05-07 19:03 32.19271 34.83852 742 ft 104 kts 113°
2026-05-07 19:03 32.18843 34.84607 793 ft 113 kts 121°
2026-05-07 19:03 32.18287 34.85245 782 ft 116 kts 166°
2026-05-07 19:03 32.17659 34.84887 669 ft 102 kts 272°
2026-05-07 19:04 32.17829 34.84119 228 ft 87 kts 295°
2026-05-07 19:04 32.18001 34.83557 108 ft 62 kts 290°
2026-05-07 19:04 32.18160 34.83058 181 ft 71 kts 290°
2026-05-07 19:04 32.18460 34.82730 386 ft 62 kts
2026-05-07 19:05 32.18920 34.82823 548 ft 72 kts
2026-05-07 19:05 32.19412 34.83003 676 ft 74 kts 19°
2026-05-07 19:05 32.19325 34.83644 733 ft 101 kts 108°
2026-05-07 19:05 32.18962 34.84439 711 ft 122 kts 117°
2026-05-07 19:06 32.18425 34.85195 745 ft 128 kts 151°
2026-05-07 19:06 32.17713 34.84509 392 ft 60 kts 297°
2026-05-07 19:06 32.17863 34.84035 205 ft 64 kts 290°
2026-05-07 19:07 32.17986 34.83590 110 ft 52 kts 287°
2026-05-07 19:07 32.18149 34.83083 184 ft 71 kts 289°
2026-05-07 19:07 32.18411 34.82769 420 ft 55 kts 10°
2026-05-07 19:07 32.18815 34.82931 554 ft 67 kts 18°
2026-05-07 19:08 32.19241 34.83146 714 ft 72 kts 17°
2026-05-07 19:08 32.19398 34.83609 811 ft 90 kts 101°
2026-05-07 19:08 32.19091 34.84413 757 ft 116 kts 110°
2026-05-07 19:08 32.18699 34.85142 721 ft 104 kts 137°
2026-05-07 19:09 32.17984 34.85264 566 ft 109 kts 199°
2026-05-07 19:09 32.17677 34.84629 471 ft 90 kts 281°
2026-05-07 19:09 32.17874 34.83994 184 ft 74 kts 291°
2026-05-07 19:09 32.18020 34.83498 107 ft 61 kts 290°
2026-05-07 19:10 32.18184 34.82960 199 ft 75 kts 288°
2026-05-07 19:10 32.18535 34.82727 367 ft 68 kts 12°
2026-05-07 19:10 32.19029 34.82871 461 ft 79 kts 10°
2026-05-07 19:10 32.19436 34.83192 620 ft 82 kts 77°
2026-05-07 19:11 32.19191 34.83861 749 ft 97 kts 116°
2026-05-07 19:11 32.18799 34.84559 734 ft 108 kts 118°
2026-05-07 19:11 32.18279 34.85233 697 ft 119 kts 157°
2026-05-07 19:11 32.17649 34.84883 592 ft 104 kts 275°
2026-05-07 19:12 32.17824 34.84150 247 ft 84 kts 296°
2026-05-07 19:12 32.17984 34.83599 112 ft 59 kts 290°
2026-05-07 19:12 32.18130 34.83129 141 ft 69 kts 294°
2026-05-07 19:12 32.18437 34.82708 300 ft 71 kts 359°
2026-05-07 19:13 32.18944 34.82877 396 ft 85 kts 14°
2026-05-07 19:13 32.19425 34.83273 506 ft 97 kts 81°
2026-05-07 19:13 32.19143 34.84041 669 ft 111 kts 110°
2026-05-07 19:13 32.18766 34.84865 746 ft 114 kts 116°
2026-05-07 19:14 32.18134 34.85286 674 ft 119 kts 184°
2026-05-07 19:14 32.17550 34.84919 528 ft 74 kts 295°
2026-05-07 19:14 32.17746 34.84412 316 ft 70 kts 293°
2026-05-07 19:14 32.17902 34.83906 143 ft 61 kts 289°
2026-05-07 19:15 32.18034 34.83458 105 ft 61 kts 290°
2026-05-07 19:15 32.18194 34.82951 244 ft 65 kts 291°
2026-05-07 19:15 32.18560 34.82759 395 ft 68 kts
2026-05-07 19:15 32.19061 34.82865 516 ft 76 kts 11°
2026-05-07 19:16 32.19241 34.83379 660 ft 93 kts 94°
2026-05-07 19:16 32.19032 34.84162 729 ft 107 kts 103°
2026-05-07 19:16 32.18729 34.84977 723 ft 109 kts 115°
2026-05-07 19:16 32.18045 34.85278 635 ft 119 kts 192°
2026-05-07 19:17 32.17668 34.84626 498 ft 93 kts 290°
2026-05-07 19:17 32.17872 34.84007 176 ft 72 kts 289°
2026-05-07 19:17 32.18008 34.83529 108 ft 58 kts 289°
2026-05-07 19:17 32.18174 34.83005 195 ft 71 kts 291°
2026-05-07 19:18 32.18464 34.82676 356 ft 66 kts 12°
2026-05-07 19:18 32.18934 34.82865 439 ft 81 kts 20°
2026-05-07 19:18 32.19476 34.83177 535 ft 88 kts 51°
2026-05-07 19:18 32.19298 34.83849 706 ft 91 kts 116°
2026-05-07 19:19 32.18909 34.84484 698 ft 103 kts 121°
2026-05-07 19:19 32.18444 34.85142 695 ft 104 kts 132°
2026-05-07 19:19 32.17755 34.85212 587 ft 105 kts 212°
2026-05-07 19:19 32.17656 34.84588 461 ft 74 kts 297°
2026-05-07 19:20 32.17850 34.84069 204 ft 65 kts 291°
2026-05-07 19:20 32.17980 34.83628 111 ft 49 kts 289°
2026-05-07 19:20 32.18054 34.83383 103 ft 20 kts 289°
2026-05-07 19:20 32.18036 34.83332 104 ft 5 kts 162°
2026-05-07 19:21 32.18022 34.83334 104 ft 6 kts 179°